Time;durP1;ratioP1;P1;durP2;ratioP2;P2;SDS_P1;SDS_P2;PMS_P1;PMS_P2;Temp;Humidity;BMP_temperature;BMP_pressure;BME280_temperature;BME280_humidity;BME280_pressure;Samples;Min_cycle;Max_cycle;Signal;HPM_P1;HPM_P2
2023/03/27 00:01:51;;;;;;;;;1.00;1.00;;;;;11.44;44.68;101228.00;5076559;27;45216;-65
2023/03/27 00:04:18;;;;;;;;;1.00;1.00;;;;;11.36;44.73;101237.53;5089701;27;45114;-63
2023/03/27 00:06:44;;;;;;;;;5.00;2.00;;;;;11.39;44.04;101247.44;5085453;27;45091;-65
2023/03/27 00:09:10;;;;;;;;;0.67;0.67;;;;;11.30;43.96;101231.09;5082002;27;45367;-63
2023/03/27 00:11:35;;;;;;;;;1.00;1.00;;;;;11.34;44.22;101251.75;5083096;27;45086;-63
2023/03/27 00:14:00;;;;;;;;;2.00;1.25;;;;;11.35;43.74;101270.53;5088754;28;45482;-65
2023/03/27 00:16:26;;;;;;;;;2.25;2.00;;;;;11.35;44.86;101280.31;5079987;28;45260;-64
2023/03/27 00:18:53;;;;;;;;;3.00;1.50;;;;;11.38;44.66;101286.69;5089915;28;46270;-63
2023/03/27 00:21:19;;;;;;;;;0.50;0.50;;;;;11.40;44.21;101294.72;5090147;27;45134;-64
2023/03/27 00:23:45;;;;;;;;;6.33;0.00;;;;;11.27;44.28;101285.44;5086932;28;45062;-63
2023/03/27 00:26:11;;;;;;;;;0.00;0.00;;;;;11.37;43.90;101303.59;5085733;28;45239;-64
2023/03/27 00:28:36;;;;;;;;;2.00;0.50;;;;;11.33;43.50;101307.00;5088429;27;45540;-64
2023/03/27 00:31:02;;;;;;;;;3.00;0.00;;;;;11.24;44.10;101301.38;5087450;28;45194;-63
2023/03/27 00:33:28;;;;;;;;;5.00;1.00;;;;;11.25;44.05;101322.81;5086062;27;47945;-64
2023/03/27 00:35:53;;;;;;;;;1.00;1.00;;;;;11.18;44.72;101314.53;5079984;28;45092;-64
2023/03/27 00:38:19;;;;;;;;;1.67;0.00;;;;;11.20;44.34;101323.50;5089920;27;56229;-64
2023/03/27 00:40:46;;;;;;;;;1.25;1.00;;;;;11.25;44.25;101346.91;5078752;27;45152;-63
2023/03/27 00:43:21;;;;;;;;;2.00;0.75;;;;;11.17;44.45;101345.72;5084766;27;45333;-63
2023/03/27 00:45:49;;;;;;;;;4.25;3.00;;;;;11.20;44.33;101351.19;5089921;27;45132;-64
2023/03/27 00:48:15;;;;;;;;;6.00;1.00;;;;;11.21;44.46;101352.97;5081665;27;45933;-62
2023/03/27 00:50:43;;;;;;;;;4.00;1.00;;;;;11.21;44.71;101369.03;5078952;27;45257;-65
2023/03/27 00:53:20;;;;;;;;;0.00;0.00;;;;;11.13;44.36;101341.13;5087045;27;45099;-64
2023/03/27 00:55:50;;;;;;;;;1.25;1.25;;;;;11.21;44.18;101358.34;5091447;27;45178;-64
2023/03/27 00:58:21;;;;;;;;;2.25;2.25;;;;;11.12;44.07;101366.06;5091006;27;46003;-63
2023/03/27 01:00:50;;;;;;;;;1.00;0.00;;;;;11.11;44.47;101363.34;5078759;28;45137;-63
2023/03/27 01:03:17;;;;;;;;;2.00;0.00;;;;;11.10;44.60;101374.88;5090920;27;45024;-64
2023/03/27 01:05:43;;;;;;;;;5.00;2.25;;;;;11.12;44.23;101384.78;5088403;27;45103;-65
2023/03/27 01:08:10;;;;;;;;;2.25;1.00;;;;;11.13;44.37;101385.69;5082519;28;45404;-64
2023/03/27 01:11:22;;;;;;;;;2.00;1.00;;;;;11.10;43.97;101394.50;5080539;28;45170;-64
2023/03/27 01:14:16;;;;;;;;;1.25;1.00;;;;;11.07;44.49;101391.75;5063257;28;45281;-64
2023/03/27 01:17:06;;;;;;;;;0.00;0.00;;;;;10.95;44.54;101400.22;5070493;28;45161;-64
2023/03/27 01:19:44;;;;;;;;;0.00;0.00;;;;;10.95;44.59;101393.97;5082043;27;46471;-65
2023/03/27 01:22:13;;;;;;;;;1.00;1.00;;;;;10.92;45.20;101404.56;5100369;27;45741;-64
2023/03/27 01:25:20;;;;;;;;;4.00;2.00;;;;;10.84;45.29;101412.31;5080544;27;45267;-64
2023/03/27 01:28:01;;;;;;;;;3.75;0.75;;;;;10.79;45.11;101417.50;5087741;27;45222;-63
2023/03/27 01:30:34;;;;;;;;;1.00;1.00;;;;;10.74;46.00;101418.16;5079144;27;45495;-64
2023/03/27 01:33:00;;;;;;;;;2.00;1.00;;;;;10.70;45.78;101411.81;5079390;27;45535;-63
2023/03/27 01:35:30;;;;;;;;;0.75;0.75;;;;;10.65;46.54;101419.66;5088111;27;44943;-63
2023/03/27 01:38:13;;;;;;;;;1.00;1.00;;;;;10.61;46.41;101431.09;5092917;27;45279;-64
2023/03/27 01:41:10;;;;;;;;;2.00;2.00;;;;;10.54;46.88;101422.78;5084672;27;45733;-64
2023/03/27 01:43:44;;;;;;;;;3.00;1.25;;;;;10.48;46.94;101423.47;5078595;27;45359;-64
2023/03/27 01:46:23;;;;;;;;;5.25;0.25;;;;;10.41;47.06;101416.06;5093221;27;45094;-64
2023/03/27 01:49:01;;;;;;;;;1.50;1.00;;;;;10.45;47.19;101434.03;5092440;27;45457;-64
2023/03/27 01:51:34;;;;;;;;;5.00;1.75;;;;;10.39;47.71;101437.38;5088027;27;45595;-63
2023/03/27 01:54:08;;;;;;;;;2.50;1.00;;;;;10.39;47.84;101442.72;5088925;27;45191;-62
2023/03/27 01:56:39;;;;;;;;;1.75;1.50;;;;;10.40;47.72;101438.31;5076123;27;45384;-64
2023/03/27 01:59:17;;;;;;;;;0.75;0.25;;;;;10.38;48.21;101439.97;5085373;27;45216;-63
2023/03/27 02:01:50;;;;;;;;;5.25;1.50;;;;;10.41;47.80;101445.44;5086738;28;46236;-65
2023/03/27 02:04:26;;;;;;;;;3.50;1.25;;;;;10.44;48.18;101450.91;5092333;27;45018;-62
2023/03/27 02:06:57;;;;;;;;;1.00;1.00;;;;;10.41;48.50;101456.13;5068718;27;45389;-64
2023/03/27 02:09:38;;;;;;;;;3.50;1.00;;;;;10.31;49.06;101447.75;5084083;27;45556;-63
2023/03/27 02:12:14;;;;;;;;;4.75;1.75;;;;;10.39;49.13;101464.09;5080206;28;45739;-64
2023/03/27 02:14:48;;;;;;;;;3.00;3.00;;;;;10.41;49.00;101467.75;5085026;27;44982;-64
2023/03/27 02:17:17;;;;;;;;;4.50;1.25;;;;;10.36;49.01;101457.72;5074047;27;45425;-63
2023/03/27 02:19:51;;;;;;;;;1.75;1.00;;;;;10.38;49.10;101472.03;5063452;27;45761;-61
2023/03/27 02:22:17;;;;;;;;;2.25;1.25;;;;;10.27;48.77;101436.88;5080097;27;45660;-62
2023/03/27 02:24:42;;;;;;;;;2.00;1.00;;;;;10.06;49.02;101405.81;5084049;27;45402;-64
2023/03/27 02:27:21;;;;;;;;;1.50;1.50;;;;;10.39;49.29;101476.53;5079398;27;45298;-63
2023/03/27 02:30:07;;;;;;;;;1.50;0.00;;;;;10.30;48.70;101463.72;5084228;27;45306;-63
2023/03/27 02:32:42;;;;;;;;;0.50;0.00;;;;;10.42;49.05;101482.00;5079983;28;46298;-63
2023/03/27 02:35:26;;;;;;;;;3.00;1.75;;;;;10.37;49.13;101479.16;5090881;27;45087;-63
2023/03/27 02:38:08;;;;;;;;;6.50;2.00;;;;;10.49;48.46;101493.00;5090854;28;45356;-63
2023/03/27 02:40:50;;;;;;;;;1.25;0.75;;;;;10.40;48.95;101476.59;5086739;27;45250;-63
2023/03/27 02:43:27;;;;;;;;;1.25;1.25;;;;;10.38;48.95;101477.38;5083773;28;49503;-63
2023/03/27 02:46:01;;;;;;;;;0.50;0.50;;;;;10.50;49.43;101499.25;5085530;28;45174;-64
2023/03/27 02:48:39;;;;;;;;;4.75;3.00;;;;;10.45;48.91;101492.81;5087160;27;46012;-65
2023/03/27 02:51:33;;;;;;;;;3.75;1.00;;;;;10.39;48.89;101498.81;5080159;28;45256;-64
2023/03/27 02:54:08;;;;;;;;;5.00;2.00;;;;;10.38;49.08;101496.06;5082823;28;45205;-62
2023/03/27 02:56:39;;;;;;;;;2.25;0.25;;;;;10.45;48.89;101496.38;5085710;28;44939;-63
2023/03/27 02:59:09;;;;;;;;;2.75;1.75;;;;;10.43;49.00;101503.44;5090651;28;45081;-63
2023/03/27 03:01:37;;;;;;;;;1.00;1.00;;;;;10.35;48.70;101498.66;5093332;27;45156;-63
2023/03/27 03:04:10;;;;;;;;;1.00;0.75;;;;;10.40;48.92;101499.75;5092365;28;45234;-62
2023/03/27 03:06:41;;;;;;;;;2.00;0.25;;;;;10.44;48.40;101515.97;5088380;27;45073;-61
2023/03/27 03:09:08;;;;;;;;;4.25;1.75;;;;;10.37;48.56;101521.00;5089995;27;45091;-65
2023/03/27 03:11:36;;;;;;;;;1.00;1.00;;;;;10.28;49.25;101525.06;5092729;27;44893;-64
2023/03/27 03:14:01;;;;;;;;;1.00;1.00;;;;;10.26;48.89;101526.78;5084921;27;45140;-62
2023/03/27 03:16:28;;;;;;;;;1.00;1.00;;;;;10.34;49.03;101532.44;5092635;27;45045;-62
2023/03/27 03:18:53;;;;;;;;;2.25;0.50;;;;;10.36;49.04;101532.50;5092751;28;44745;-62
2023/03/27 03:21:18;;;;;;;;;1.50;0.25;;;;;10.35;48.95;101539.63;5092637;27;45065;-62
2023/03/27 03:23:44;;;;;;;;;3.00;1.25;;;;;10.30;49.13;101538.50;5088085;27;46445;-65
2023/03/27 03:26:11;;;;;;;;;1.00;1.00;;;;;10.27;48.95;101536.59;5092604;27;44961;-63
2023/03/27 03:28:36;;;;;;;;;1.25;0.00;;;;;10.21;49.37;101541.69;5084117;27;44906;-63
2023/03/27 03:31:03;;;;;;;;;1.75;1.75;;;;;10.25;49.48;101548.97;5088309;28;44964;-64
2023/03/27 03:33:29;;;;;;;;;0.00;0.00;;;;;10.17;49.75;101547.75;5092126;27;45758;-64
2023/03/27 03:35:59;;;;;;;;;1.75;0.75;;;;;10.17;49.30;101550.44;5091933;28;45127;-66
2023/03/27 03:38:25;;;;;;;;;1.25;0.75;;;;;10.15;49.49;101549.47;5092558;27;45162;-64
2023/03/27 03:40:53;;;;;;;;;1.00;1.00;;;;;10.13;49.67;101557.41;5080259;27;45048;-64
2023/03/27 03:43:20;;;;;;;;;1.00;1.00;;;;;10.04;49.57;101542.78;5087464;27;46018;-63
2023/03/27 03:45:46;;;;;;;;;5.00;2.00;;;;;10.06;49.34;101549.06;5090939;27;44969;-63
2023/03/27 03:48:11;;;;;;;;;2.00;1.00;;;;;10.02;49.86;101558.72;5092053;27;44999;-65
2023/03/27 03:50:36;;;;;;;;;2.50;1.00;;;;;10.12;50.42;101576.94;5091178;28;45132;-63
2023/03/27 03:53:02;;;;;;;;;2.25;1.00;;;;;10.13;50.17;101581.44;5091991;27;45296;-63
2023/03/27 03:55:28;;;;;;;;;0.00;0.00;;;;;10.05;49.63;101569.53;5084948;28;45079;-63
2023/03/27 03:57:54;;;;;;;;;1.75;1.00;;;;;10.05;49.92;101582.88;5089807;27;44970;-64
2023/03/27 04:00:21;;;;;;;;;3.25;1.50;;;;;10.05;49.64;101585.56;5087479;27;45009;-64
2023/03/27 04:02:49;;;;;;;;;2.00;1.25;;;;;10.08;49.94;101590.09;5078253;28;46416;-62
2023/03/27 04:05:15;;;;;;;;;4.00;1.75;;;;;9.93;50.30;101579.69;5089409;28;45156;-62
2023/03/27 04:07:41;;;;;;;;;0.50;0.25;;;;;9.93;49.90;101585.03;5091982;27;44973;-63
2023/03/27 04:10:07;;;;;;;;;1.00;0.50;;;;;10.06;50.30;101606.03;5090643;27;45156;-63
2023/03/27 04:12:33;;;;;;;;;0.75;0.00;;;;;10.04;49.73;101599.75;5089458;27;45837;-64
2023/03/27 04:14:58;;;;;;;;;0.50;0.50;;;;;10.05;49.86;101617.59;5091615;28;44984;-63
2023/03/27 04:17:25;;;;;;;;;4.00;0.25;;;;;10.02;50.12;101612.13;5087072;27;45162;-64
2023/03/27 04:19:53;;;;;;;;;2.00;0.00;;;;;10.06;50.17;101626.50;5089242;28;44870;-64
2023/03/27 04:22:21;;;;;;;;;4.75;0.50;;;;;10.06;50.24;101630.06;5091310;27;46109;-64
2023/03/27 04:24:49;;;;;;;;;3.00;1.00;;;;;10.08;49.96;101635.47;5084341;27;45062;-63
2023/03/27 04:27:15;;;;;;;;;2.25;0.00;;;;;10.06;49.76;101623.84;5081242;27;45222;-64
2023/03/27 04:29:42;;;;;;;;;0.50;0.50;;;;;10.15;49.87;101646.50;5077313;28;45502;-63
2023/03/27 04:32:10;;;;;;;;;0.50;0.50;;;;;10.13;49.94;101645.53;5078093;27;46472;-63
2023/03/27 04:34:37;;;;;;;;;0.25;0.00;;;;;10.07;49.88;101637.25;5089523;28;45048;-63
2023/03/27 04:37:03;;;;;;;;;1.00;0.00;;;;;10.15;49.33;101657.19;5088956;27;45401;-64
2023/03/27 04:39:28;;;;;;;;;4.00;1.00;;;;;10.18;49.26;101656.41;5083609;27;45267;-64
2023/03/27 04:41:54;;;;;;;;;3.25;1.00;;;;;10.13;49.50;101658.88;5083175;28;45566;-65
2023/03/27 04:44:20;;;;;;;;;2.00;0.00;;;;;10.12;49.34;101662.38;5082460;28;52907;-63
2023/03/27 04:46:50;;;;;;;;;3.75;0.75;;;;;10.13;49.44;101658.88;5089165;27;44924;-64
2023/03/27 04:49:19;;;;;;;;;1.00;1.00;;;;;10.18;49.34;101672.44;5086089;27;45264;-62
2023/03/27 04:51:47;;;;;;;;;1.00;1.00;;;;;10.18;49.46;101676.84;5086333;28;45773;-63
2023/03/27 04:54:12;;;;;;;;;5.75;2.50;;;;;10.15;49.10;101673.19;5086052;27;45367;-64
2023/03/27 04:56:39;;;;;;;;;2.50;0.25;;;;;10.15;49.19;101681.22;5085038;27;49600;-62
2023/03/27 04:59:05;;;;;;;;;4.00;2.00;;;;;10.17;48.96;101680.38;5092524;28;46179;-62
2023/03/27 05:01:30;;;;;;;;;0.00;0.00;;;;;10.15;48.94;101691.00;5086737;28;45816;-63
2023/03/27 05:03:56;;;;;;;;;0.00;0.00;;;;;10.13;49.27;101690.94;5093352;28;45280;-63
2023/03/27 05:06:22;;;;;;;;;2.00;1.00;;;;;10.06;49.32;101686.13;5091864;27;45005;-65
2023/03/27 05:08:48;;;;;;;;;2.50;1.25;;;;;9.89;49.46;101676.50;5092053;27;45541;-63
2023/03/27 05:11:14;;;;;;;;;1.50;1.00;;;;;9.96;50.01;101706.22;5090987;28;45506;-63
2023/03/27 05:13:39;;;;;;;;;1.00;0.00;;;;;9.86;50.14;101685.28;5083487;27;45118;-63
2023/03/27 05:16:05;;;;;;;;;4.75;1.00;;;;;10.03;49.37;101698.44;5090797;27;45516;-63
2023/03/27 05:18:31;;;;;;;;;3.25;1.00;;;;;9.76;50.00;101645.69;5091104;28;45230;-65
2023/03/27 05:20:57;;;;;;;;;1.50;0.00;;;;;10.11;50.12;101703.31;5094614;27;45591;-63
2023/03/27 05:23:23;;;;;;;;;0.00;0.00;;;;;10.04;49.37;101695.84;5092922;27;45247;-63
2023/03/27 05:25:48;;;;;;;;;6.00;2.00;;;;;10.10;49.80;101709.47;5087866;27;45301;-63
2023/03/27 05:28:14;;;;;;;;;0.75;0.75;;;;;10.12;48.96;101710.44;5080603;27;45237;-65
2023/03/27 05:30:41;;;;;;;;;3.00;1.00;;;;;10.02;49.05;101718.91;5093508;27;45164;-63
2023/03/27 05:33:07;;;;;;;;;0.75;0.75;;;;;9.98;49.78;101714.25;5080854;27;45059;-62
2023/03/27 05:35:33;;;;;;;;;5.25;2.25;;;;;10.08;49.96;101729.88;5089736;28;44975;-63
2023/03/27 05:37:59;;;;;;;;;2.00;1.00;;;;;10.12;49.64;101729.13;5093146;28;45171;-63
2023/03/27 05:40:26;;;;;;;;;2.50;1.50;;;;;10.06;49.09;101720.84;5085777;27;45177;-64
2023/03/27 05:42:53;;;;;;;;;2.00;0.75;;;;;10.06;49.86;101736.88;5088603;27;45102;-62
2023/03/27 05:45:19;;;;;;;;;0.50;0.50;;;;;10.10;49.76;101738.84;5085176;27;45229;-64
2023/03/27 05:47:50;;;;;;;;;1.25;0.00;;;;;10.09;50.36;101746.78;5089991;27;45236;-61
2023/03/27 05:50:18;;;;;;;;;0.00;0.00;;;;;10.15;49.76;101744.41;5084431;28;45183;-64
2023/03/27 05:52:44;;;;;;;;;2.00;1.00;;;;;10.23;49.76;101739.38;5083302;28;45213;-65
2023/03/27 05:55:09;;;;;;;;;2.50;0.50;;;;;10.23;49.83;101752.72;5087627;28;45249;-63
2023/03/27 05:57:39;;;;;;;;;2.00;2.00;;;;;10.10;49.91;101752.19;5090474;27;45171;-63
2023/03/27 06:00:15;;;;;;;;;1.00;1.00;;;;;10.07;50.25;101737.81;5085971;28;46638;-63
2023/03/27 06:02:43;;;;;;;;;3.50;2.00;;;;;10.12;50.12;101750.50;5086240;28;45075;-65
2023/03/27 06:05:14;;;;;;;;;2.00;2.00;;;;;10.18;49.83;101767.63;5091364;28;45658;-64
2023/03/27 06:07:41;;;;;;;;;1.00;1.00;;;;;10.13;49.58;101747.00;5094305;27;44977;-64
2023/03/27 06:10:07;;;;;;;;;2.50;1.00;;;;;10.28;49.89;101776.13;5091388;28;46198;-63
2023/03/27 06:12:35;;;;;;;;;1.25;1.25;;;;;10.28;50.14;101768.13;5090988;27;45110;-64
2023/03/27 06:15:01;;;;;;;;;2.00;2.00;;;;;10.26;49.86;101777.84;5087871;27;45184;-63
2023/03/27 06:17:26;;;;;;;;;3.75;1.75;;;;;10.23;50.63;101782.09;5086887;27;45277;-63
2023/03/27 06:19:51;;;;;;;;;1.00;1.00;;;;;10.25;50.20;101777.78;5090080;27;45754;-62
2023/03/27 06:22:17;;;;;;;;;4.00;2.25;;;;;10.20;50.19;101768.66;5085618;27;45217;-63
2023/03/27 06:24:42;;;;;;;;;10.25;9.00;;;;;10.29;50.68;101785.06;5082398;28;51627;-64
2023/03/27 06:27:07;;;;;;;;;1.50;1.50;;;;;10.31;50.59;101786.03;5087370;28;45568;-64
2023/03/27 06:29:33;;;;;;;;;3.50;1.75;;;;;10.29;50.51;101783.28;5083343;27;45493;-64
2023/03/27 06:32:00;;;;;;;;;2.00;2.00;;;;;10.31;50.39;101786.97;5080644;28;48059;-65
2023/03/27 06:34:26;;;;;;;;;0.00;0.00;;;;;10.42;50.06;101798.13;5087563;28;45261;-64
2023/03/27 06:36:51;;;;;;;;;2.00;2.00;;;;;10.43;50.38;101797.31;5084564;27;45281;-64
2023/03/27 06:39:16;;;;;;;;;2.00;0.50;;;;;10.45;50.29;101816.97;5079588;27;45494;-61
2023/03/27 06:41:42;;;;;;;;;1.00;1.00;;;;;10.48;50.02;101805.53;5074337;27;45102;-66
2023/03/27 06:44:07;;;;;;;;;3.75;2.00;;;;;10.50;50.04;101811.84;5081244;28;45632;-63
2023/03/27 06:46:33;;;;;;;;;75.50;57.25;;;;;10.45;49.73;101811.63;5085109;27;45312;-64
2023/03/27 06:48:58;;;;;;;;;17.25;15.50;;;;;10.40;50.68;101790.91;5073284;28;45469;-63
2023/03/27 06:51:25;;;;;;;;;7.50;7.00;;;;;10.50;50.25;101819.84;5081657;28;45194;-63
2023/03/27 06:53:52;;;;;;;;;16.25;14.75;;;;;10.51;50.33;101817.25;5079568;27;45247;-63
2023/03/27 06:56:17;;;;;;;;;5.00;2.00;;;;;10.54;50.10;101826.25;5073406;28;45517;-63
2023/03/27 06:58:43;;;;;;;;;3.75;3.75;;;;;10.54;49.85;101828.91;5083087;27;45497;-65
2023/03/27 07:01:08;;;;;;;;;4.00;2.75;;;;;10.50;49.59;101830.53;5063711;27;45372;-64
2023/03/27 07:03:33;;;;;;;;;1.25;1.25;;;;;10.51;50.12;101833.28;5069758;28;53876;-65
2023/03/27 07:05:59;;;;;;;;;2.00;2.00;;;;;10.50;49.99;101834.13;5074860;27;45391;-63
2023/03/27 07:08:25;;;;;;;;;4.25;3.00;;;;;10.51;49.70;101840.41;5080628;27;47506;-62
2023/03/27 07:10:54;;;;;;;;;3.50;1.00;;;;;10.50;50.36;101839.47;5084578;27;45346;-64
2023/03/27 07:13:19;;;;;;;;;6.50;2.75;;;;;10.43;50.19;101833.81;5082498;27;45483;-65
2023/03/27 07:15:45;;;;;;;;;4.25;4.25;;;;;10.41;50.31;101819.44;5087344;27;45504;-64
2023/03/27 07:18:10;;;;;;;;;6.00;2.50;;;;;10.59;50.45;101841.66;5071828;27;50007;-64
2023/03/27 07:20:36;;;;;;;;;2.00;1.00;;;;;10.66;49.64;101843.72;5074675;28;45340;-63
2023/03/27 07:23:02;;;;;;;;;2.50;1.25;;;;;10.68;49.76;101839.34;5081994;28;45200;-65
2023/03/27 07:25:36;;;;;;;;;1.00;1.00;;;;;10.76;49.33;101846.81;5084364;27;44936;-64
2023/03/27 07:28:06;;;;;;;;;5.25;2.00;;;;;10.82;49.34;101839.97;5082168;27;45309;-65
2023/03/27 07:30:33;;;;;;;;;3.00;2.00;;;;;10.86;48.50;101846.34;5078974;28;45078;-64
2023/03/27 07:32:58;;;;;;;;;3.00;2.50;;;;;10.91;48.71;101850.13;5066648;28;45663;-63
2023/03/27 07:35:24;;;;;;;;;4.50;3.00;;;;;10.92;47.79;101843.91;5077511;27;45245;-63
2023/03/27 07:37:52;;;;;;;;;6.75;3.50;;;;;11.02;46.43;101854.19;5085863;27;45822;-64
2023/03/27 07:40:21;;;;;;;;;4.50;2.50;;;;;11.05;45.67;101832.00;5082360;27;45543;-63
2023/03/27 07:42:48;;;;;;;;;3.25;1.75;;;;;11.05;44.00;101824.91;5083214;28;45098;-63
2023/03/27 07:45:15;;;;;;;;;1.33;0.00;;;;;11.00;44.36;101828.22;5081855;27;45209;-65
2023/03/27 07:47:42;;;;;;;;;2.00;2.00;;;;;11.06;43.56;101834.72;5077858;27;45421;-65
2023/03/27 07:50:19;;;;;;;;;1.00;1.00;;;;;10.94;41.15;101818.19;5079109;28;45783;-62
2023/03/27 07:52:44;;;;;;;;;2.50;1.75;;;;;11.09;41.08;101838.38;5074404;28;45602;-64
2023/03/27 07:55:13;;;;;;;;;0.75;0.75;;;;;11.10;40.01;101846.47;5084913;27;45168;-66
2023/03/27 07:57:39;;;;;;;;;2.25;2.25;;;;;11.07;40.02;101839.25;5089617;27;46068;-67
2023/03/27 08:00:10;;;;;;;;;0.00;0.00;;;;;11.00;39.43;101833.56;5084738;27;45052;-67
2023/03/27 08:02:38;;;;;;;;;1.00;1.00;;;;;10.94;39.89;101822.59;5077548;28;45033;-64
2023/03/27 08:05:06;;;;;;;;;1.25;1.25;;;;;11.19;40.19;101865.59;5085218;27;45260;-68
2023/03/27 08:07:31;;;;;;;;;0.25;0.25;;;;;11.17;39.32;101864.63;5083987;27;45723;-66
2023/03/27 08:09:57;;;;;;;;;0.33;0.00;;;;;11.25;38.63;101870.25;5082508;27;45781;-65
2023/03/27 08:12:22;;;;;;;;;0.50;0.50;;;;;11.16;38.37;101853.84;5089099;27;45361;-68
2023/03/27 08:14:47;;;;;;;;;2.25;1.25;;;;;11.12;38.89;101867.94;5089385;27;45162;-64
2023/03/27 08:17:13;;;;;;;;;3.00;1.50;;;;;11.12;39.10;101874.22;5088605;28;45343;-66
2023/03/27 08:19:38;;;;;;;;;4.25;2.00;;;;;11.14;38.37;101884.97;5088230;27;45208;-66
2023/03/27 08:22:04;;;;;;;;;2.25;1.00;;;;;11.17;38.38;101879.72;5088960;28;47467;-67
2023/03/27 08:24:29;;;;;;;;;1.00;1.00;;;;;11.21;38.96;101884.38;5087361;27;45046;-66
2023/03/27 08:26:55;;;;;;;;;0.00;0.00;;;;;11.28;38.47;101889.13;5088942;27;45449;-66
2023/03/27 08:29:20;;;;;;;;;1.75;0.75;;;;;11.38;38.90;101886.00;5076407;27;45051;-67
2023/03/27 08:31:46;;;;;;;;;1.75;1.00;;;;;11.53;38.59;101901.78;5085265;28;45055;-70
2023/03/27 08:34:11;;;;;;;;;1.00;0.00;;;;;11.63;38.72;101905.72;5077192;28;45236;-70
2023/03/27 08:36:37;;;;;;;;;1.00;1.00;;;;;11.76;38.99;101909.81;5073198;28;46409;-69
2023/03/27 08:39:03;;;;;;;;;0.67;0.67;;;;;11.87;38.67;101911.16;5075446;27;45413;-69
2023/03/27 08:41:37;;;;;;;;;1.00;1.00;;;;;11.90;38.59;101907.69;5067099;27;45475;-72
2023/03/27 08:44:06;;;;;;;;;2.00;2.00;;;;;11.92;38.25;101912.28;5073867;28;45572;-67
2023/03/27 08:46:48;;;;;;;;;2.00;2.00;;;;;11.88;37.92;101928.13;5068427;28;46283;-68
2023/03/27 08:49:19;;;;;;;;;2.00;2.00;;;;;11.79;39.27;101931.34;5072893;27;45321;-67
2023/03/27 08:52:18;;;;;;;;;17.25;7.00;;;;;11.76;40.22;101939.25;5073536;27;45584;-66
2023/03/27 08:54:49;;;;;;;;;3.25;3.25;;;;;11.75;40.15;101924.06;5073279;28;45289;-63
2023/03/27 08:57:20;;;;;;;;;4.00;4.00;;;;;11.85;40.00;101942.31;5061876;27;45364;-65
2023/03/27 08:59:46;;;;;;;;;3.00;3.00;;;;;11.87;39.53;101943.28;5074654;27;45301;-64
2023/03/27 09:02:23;;;;;;;;;7.00;5.00;;;;;11.98;39.68;101943.75;5063726;27;45468;-66
2023/03/27 09:05:10;;;;;;;;;4.00;2.25;;;;;12.14;39.06;101935.47;5066446;28;45500;-67
2023/03/27 09:07:45;;;;;;;;;7.00;2.75;;;;;12.31;39.36;101940.59;5062517;28;45483;-68
2023/03/27 09:10:34;;;;;;;;;10.00;10.00;;;;;12.42;37.92;101946.34;5065138;27;45546;-65
2023/03/27 09:13:25;;;;;;;;;4.25;4.25;;;;;12.50;37.39;101966.31;5071211;28;45425;-67
2023/03/27 09:16:14;;;;;;;;;3.00;3.00;;;;;12.39;37.54;101909.63;5066376;28;45397;-66
2023/03/27 09:18:57;;;;;;;;;6.00;3.00;;;;;12.80;37.22;101961.19;5058497;28;48305;-67
2023/03/27 09:21:35;;;;;;;;;2.00;2.00;;;;;12.98;36.82;101960.91;5072983;28;45781;-66
2023/03/27 09:24:06;;;;;;;;;1.00;1.00;;;;;13.09;36.98;101964.91;5074936;27;45479;-65
2023/03/27 09:26:36;;;;;;;;;5.00;4.00;;;;;13.26;36.12;101973.56;5068789;27;45301;-67
2023/03/27 09:29:14;;;;;;;;;3.67;2.67;;;;;13.20;34.71;101957.25;5056836;28;46349;-67
2023/03/27 09:31:46;;;;;;;;;1.00;1.00;;;;;13.25;33.50;101970.84;5060379;28;45468;-67
2023/03/27 09:34:15;;;;;;;;;2.00;0.00;;;;;13.26;32.70;101967.25;5072460;27;45425;-67
2023/03/27 09:36:41;;;;;;;;;2.75;2.25;;;;;13.30;31.84;101971.91;5074031;27;45424;-68
2023/03/27 09:39:14;;;;;;;;;0.00;0.00;;;;;13.26;30.89;101988.75;5073125;27;46825;-67
2023/03/27 09:41:54;;;;;;;;;4.67;0.67;;;;;13.14;31.20;101988.31;5063353;28;45390;-67
2023/03/27 09:44:49;;;;;;;;;0.33;0.00;;;;;13.10;30.92;101995.34;5073693;28;45548;-67
2023/03/27 09:47:20;;;;;;;;;2.67;1.00;;;;;13.02;30.99;101997.75;5058221;28;45773;-66
2023/03/27 09:49:53;;;;;;;;;4.67;2.00;;;;;13.06;31.52;101993.41;5071460;27;47258;-66
2023/03/27 09:52:34;;;;;;;;;1.00;1.00;;;;;13.02;31.14;101984.34;5069641;28;45490;-67
2023/03/27 09:55:00;;;;;;;;;0.00;0.00;;;;;13.16;31.93;101991.97;5071268;28;45317;-67
2023/03/27 09:57:36;;;;;;;;;3.67;1.33;;;;;13.30;31.53;102009.47;5075660;27;45624;-67
2023/03/27 10:00:26;;;;;;;;;2.00;2.00;;;;;13.34;31.62;102002.47;5083902;28;46527;-67
2023/03/27 10:03:18;;;;;;;;;2.33;1.00;;;;;13.53;32.20;102001.31;5083761;27;45049;-67
2023/03/27 10:05:45;;;;;;;;;2.00;1.00;;;;;13.59;31.85;102009.59;5082855;28;45739;-67
2023/03/27 10:08:31;;;;;;;;;0.33;0.33;;;;;13.59;31.67;101991.69;5070750;28;45493;-67
2023/03/27 10:10:58;;;;;;;;;2.33;1.00;;;;;13.57;31.47;101973.72;5076224;27;45363;-66
2023/03/27 10:13:27;;;;;;;;;2.33;2.00;;;;;13.75;31.64;101997.63;5069554;28;45278;-68
2023/03/27 10:16:04;;;;;;;;;0.67;0.67;;;;;13.78;31.40;101995.03;5079187;27;45640;-66
2023/03/27 10:18:33;;;;;;;;;2.67;0.00;;;;;13.89;31.79;101998.06;5090622;28;45246;-72
2023/03/27 10:21:05;;;;;;;;;0.00;0.00;;;;;13.97;31.67;101991.16;5087228;28;45633;-69
2023/03/27 10:23:44;;;;;;;;;1.00;1.00;;;;;14.03;30.66;101996.75;5061724;28;45690;-71
2023/03/27 10:26:16;;;;;;;;;7.50;6.50;;;;;14.10;30.60;101989.78;5075385;27;45405;-70
2023/03/27 10:28:50;;;;;;;;;3.67;1.00;;;;;14.24;30.28;101995.59;5069870;28;45372;-70
2023/03/27 10:31:32;;;;;;;;;1.67;1.67;;;;;14.30;29.82;101990.41;5077720;27;45664;-73
2023/03/27 10:34:07;;;;;;;;;0.33;0.33;;;;;14.43;30.13;102003.34;5062953;28;45554;-73
2023/03/27 10:36:36;;;;;;;;;6.33;2.00;;;;;14.42;30.05;102001.56;5066008;28;45857;-72
2023/03/27 10:39:08;;;;;;;;;2.00;0.00;;;;;14.48;30.24;101992.75;5072370;27;45572;-70
2023/03/27 10:41:38;;;;;;;;;3.33;1.00;;;;;14.38;30.25;101991.56;5074735;27;45495;-73
2023/03/27 10:44:17;;;;;;;;;5.00;2.00;;;;;14.37;30.10;101998.72;5071973;28;45400;-74
2023/03/27 10:46:43;;;;;;;;;2.00;2.00;;;;;14.31;30.66;102001.22;5081512;27;45380;-72
2023/03/27 10:49:09;;;;;;;;;0.00;0.00;;;;;14.22;30.64;102014.34;5078894;27;45543;-71
2023/03/27 10:52:05;;;;;;;;;1.00;1.00;;;;;14.12;31.35;102007.78;5088523;28;45242;-71
2023/03/27 10:54:36;;;;;;;;;1.67;1.67;;;;;13.95;31.85;102003.63;5084973;28;45311;-72
2023/03/27 10:57:12;;;;;;;;;2.00;2.00;;;;;13.83;31.35;102014.91;5088290;27;45167;-71
2023/03/27 10:59:47;;;;;;;;;1.00;1.00;;;;;13.71;31.85;102010.03;5092304;27;45147;-72
2023/03/27 11:02:30;;;;;;;;;1.33;0.67;;;;;13.56;32.43;102020.22;5082054;27;46477;-73
2023/03/27 11:05:02;;;;;;;;;2.00;0.00;;;;;13.50;32.07;102020.03;5066911;27;45486;-71
2023/03/27 11:07:36;;;;;;;;;1.00;0.33;;;;;13.46;32.05;102027.03;5061513;28;45795;-71
2023/03/27 11:10:13;;;;;;;;;4.00;2.00;;;;;13.38;31.96;102010.69;5065870;28;45725;-70
2023/03/27 11:12:41;;;;;;;;;3.33;2.33;;;;;13.41;32.50;102032.28;5064426;28;47239;-68
2023/03/27 11:15:40;;;;;;;;;2.67;2.67;;;;;13.37;32.82;102024.06;5070025;28;45455;-73
2023/03/27 11:18:24;;;;;;;;;1.67;1.00;;;;;13.53;32.60;102036.22;5069263;27;45476;-72
2023/03/27 11:21:06;;;;;;;;;1.00;1.00;;;;;13.55;33.13;102021.09;5071276;28;45448;-70
2023/03/27 11:23:57;;;;;;;;;1.00;1.00;;;;;13.63;32.72;102033.94;5064612;27;46718;-69
2023/03/27 11:26:31;;;;;;;;;5.50;5.50;;;;;13.73;32.80;102035.16;5065049;28;45649;-69
2023/03/27 11:29:08;;;;;;;;;2.67;1.33;;;;;13.70;32.75;102029.69;5071374;27;45677;-69
2023/03/27 11:31:44;;;;;;;;;1.33;0.67;;;;;13.63;32.37;102028.56;5072133;27;45570;-68
2023/03/27 11:34:17;;;;;;;;;1.00;1.00;;;;;13.76;32.51;102046.00;5074052;27;47060;-71
2023/03/27 11:36:50;;;;;;;;;1.33;1.33;;;;;13.77;31.24;102042.44;5068658;27;45609;-68
2023/03/27 11:39:47;;;;;;;;;1.67;0.67;;;;;13.83;31.07;102037.28;5075579;28;45584;-69
2023/03/27 11:42:17;;;;;;;;;1.67;1.00;;;;;13.86;31.20;102032.88;5057345;28;46002;-70